Aérodrome :
LOGIN :

S'inscrire | Disclaimer

   EN    FR    IT 

 










Légende :    VFR   VFR Marginal   IFR   IFR Intensif   IFR Très Intensif
Visi : 
Plafond : 
>= 8 km
>= 3000ft
5 à 8 km
1000 à 3000 ft
1500m à 5 km
500 à 1000 ft
800 à 1500m
200 à 500 ft
< 800m
< 200 ft
Symboles :   Orages  Brouillard  Fortes neiges  Fortes précipitations  Vent > 20 kt
SIGMETs :   Divers  Orages  Givrage  Turbulence  Onde Orograph.  Cendres Volcan.






- Altitude de l'aérodrome : 83 ft
- Code IATA : VOL


LGBL - Aghialos Volos

DERNIER METAR :
  • 271650Z 27007KT 9999 SCT030 SCT080 17/11 Q1019

METARs EXPIRÉS :
  • 271620Z 30005KT 9999 SCT030 BKN080 16/11 Q1019
  • 271550Z 29005KT 9999 SCT030 BKN080 17/10 Q1019
  • 271520Z 30004KT 9999 FEW020TCU SCT030 16/09 Q1019
  • 271450Z 29004KT 9999 FEW020TCU SCT030 16/09 Q1019 RETS
  • 271420Z 32006KT 9999 TS FEW018CB SCT030 17/11 Q1019

TAF TAF LGBL
Valide du 27 à 15h jusqu'au 28 à 00h UTC


271400Z 2715/2724 29006KT 9999 FEW015 SCT025 BKN080
PROB40
TEMPO 2715/2718 4000 RA
BECMG 2716/2718 FEW025 SCT080



MET'MAP, la Météo Aéronautique d'un coup d'oeil ! - Copyright ORBIFLY Décembre 2007 - Disclaimer

ORBIFLY MET'MAP TEAM :

Programmation & Développement : Alexandra Zaïnal
Sur une idée originale de : Baudouin d'Aumeries
Assistance à la programmation : Marc-Olivier Méhu
Soutien technique & logistique : Manuel Goepfert

Contact : metmap@orbifly.com




SOURCES & CREDITS :

   NOAA